sensor_id;sensor_type;location;lat;lon;timestamp;P1;durP1;ratioP1;P2;durP2;ratioP2
8944;SDS011;4507;40.232;29.132;2023-04-24T00:00:18;25.40;;;19.93;;
8944;SDS011;4507;40.232;29.132;2023-04-24T00:02:47;23.83;;;19.50;;
8944;SDS011;4507;40.232;29.132;2023-04-24T00:05:17;24.17;;;20.67;;
8944;SDS011;4507;40.232;29.132;2023-04-24T00:07:46;23.30;;;21.00;;
8944;SDS011;4507;40.232;29.132;2023-04-24T00:10:15;24.00;;;21.13;;
8944;SDS011;4507;40.232;29.132;2023-04-24T00:13:04;22.77;;;19.83;;
8944;SDS011;4507;40.232;29.132;2023-04-24T00:15:34;24.13;;;21.23;;
8944;SDS011;4507;40.232;29.132;2023-04-24T00:18:24;29.80;;;20.67;;
8944;SDS011;4507;40.232;29.132;2023-04-24T00:20:53;24.53;;;19.53;;
8944;SDS011;4507;40.232;29.132;2023-04-24T00:23:22;24.07;;;20.20;;
8944;SDS011;4507;40.232;29.132;2023-04-24T00:25:51;24.30;;;20.77;;
8944;SDS011;4507;40.232;29.132;2023-04-24T00:28:22;27.27;;;22.07;;
8944;SDS011;4507;40.232;29.132;2023-04-24T00:30:51;29.27;;;22.17;;
8944;SDS011;4507;40.232;29.132;2023-04-24T00:33:20;32.30;;;21.43;;
8944;SDS011;4507;40.232;29.132;2023-04-24T00:35:49;28.80;;;21.60;;
8944;SDS011;4507;40.232;29.132;2023-04-24T00:38:18;29.07;;;21.30;;
8944;SDS011;4507;40.232;29.132;2023-04-24T00:40:48;24.13;;;21.40;;
8944;SDS011;4507;40.232;29.132;2023-04-24T00:43:18;26.23;;;21.63;;
8944;SDS011;4507;40.232;29.132;2023-04-24T00:45:48;29.27;;;21.37;;
8944;SDS011;4507;40.232;29.132;2023-04-24T00:48:17;27.63;;;22.63;;
8944;SDS011;4507;40.232;29.132;2023-04-24T00:50:48;25.83;;;22.30;;
8944;SDS011;4507;40.232;29.132;2023-04-24T00:53:17;27.40;;;21.20;;
8944;SDS011;4507;40.232;29.132;2023-04-24T00:55:46;25.47;;;21.13;;
8944;SDS011;4507;40.232;29.132;2023-04-24T00:58:15;30.13;;;21.90;;
8944;SDS011;4507;40.232;29.132;2023-04-24T01:00:44;32.53;;;20.97;;
8944;SDS011;4507;40.232;29.132;2023-04-24T01:03:15;30.50;;;21.67;;
8944;SDS011;4507;40.232;29.132;2023-04-24T01:05:45;25.93;;;20.73;;
8944;SDS011;4507;40.232;29.132;2023-04-24T01:08:15;25.50;;;21.03;;
8944;SDS011;4507;40.232;29.132;2023-04-24T01:10:45;24.87;;;21.47;;
8944;SDS011;4507;40.232;29.132;2023-04-24T01:13:18;26.87;;;21.47;;
8944;SDS011;4507;40.232;29.132;2023-04-24T01:15:47;26.83;;;22.50;;
8944;SDS011;4507;40.232;29.132;2023-04-24T01:18:18;28.70;;;21.30;;
8944;SDS011;4507;40.232;29.132;2023-04-24T01:20:49;37.67;;;23.67;;
8944;SDS011;4507;40.232;29.132;2023-04-24T01:23:24;31.37;;;22.13;;
8944;SDS011;4507;40.232;29.132;2023-04-24T01:25:53;38.77;;;23.13;;
8944;SDS011;4507;40.232;29.132;2023-04-24T01:28:25;34.47;;;23.03;;
8944;SDS011;4507;40.232;29.132;2023-04-24T01:30:54;33.77;;;21.70;;
8944;SDS011;4507;40.232;29.132;2023-04-24T01:33:23;26.83;;;20.83;;
8944;SDS011;4507;40.232;29.132;2023-04-24T01:35:53;22.47;;;20.27;;
8944;SDS011;4507;40.232;29.132;2023-04-24T01:38:24;26.33;;;20.73;;
8944;SDS011;4507;40.232;29.132;2023-04-24T01:40:53;25.60;;;22.27;;
8944;SDS011;4507;40.232;29.132;2023-04-24T01:43:24;29.40;;;22.80;;
8944;SDS011;4507;40.232;29.132;2023-04-24T01:45:57;27.97;;;21.37;;
8944;SDS011;4507;40.232;29.132;2023-04-24T01:48:26;32.37;;;22.90;;
8944;SDS011;4507;40.232;29.132;2023-04-24T01:50:57;34.27;;;22.87;;
8944;SDS011;4507;40.232;29.132;2023-04-24T01:53:27;33.40;;;22.43;;
8944;SDS011;4507;40.232;29.132;2023-04-24T01:55:57;27.83;;;22.57;;
8944;SDS011;4507;40.232;29.132;2023-04-24T01:58:26;30.27;;;21.67;;
8944;SDS011;4507;40.232;29.132;2023-04-24T02:00:56;24.00;;;21.50;;
8944;SDS011;4507;40.232;29.132;2023-04-24T02:03:25;26.73;;;22.93;;
8944;SDS011;4507;40.232;29.132;2023-04-24T02:05:57;24.67;;;21.63;;
8944;SDS011;4507;40.232;29.132;2023-04-24T02:08:27;24.70;;;20.13;;
8944;SDS011;4507;40.232;29.132;2023-04-24T02:10:56;25.27;;;21.20;;
8944;SDS011;4507;40.232;29.132;2023-04-24T02:13:25;26.10;;;22.10;;
8944;SDS011;4507;40.232;29.132;2023-04-24T02:15:54;30.13;;;23.20;;
8944;SDS011;4507;40.232;29.132;2023-04-24T02:18:23;31.40;;;24.17;;
8944;SDS011;4507;40.232;29.132;2023-04-24T02:20:52;38.70;;;28.20;;
8944;SDS011;4507;40.232;29.132;2023-04-24T02:23:21;38.37;;;25.27;;
8944;SDS011;4507;40.232;29.132;2023-04-24T02:25:52;32.30;;;25.43;;
8944;SDS011;4507;40.232;29.132;2023-04-24T02:28:40;35.10;;;26.43;;
8944;SDS011;4507;40.232;29.132;2023-04-24T02:31:10;36.73;;;25.40;;
8944;SDS011;4507;40.232;29.132;2023-04-24T02:33:40;29.47;;;24.20;;
8944;SDS011;4507;40.232;29.132;2023-04-24T02:36:09;33.17;;;23.23;;
8944;SDS011;4507;40.232;29.132;2023-04-24T02:38:38;29.93;;;23.73;;
8944;SDS011;4507;40.232;29.132;2023-04-24T02:41:08;31.67;;;25.60;;
8944;SDS011;4507;40.232;29.132;2023-04-24T02:43:37;35.77;;;27.60;;
8944;SDS011;4507;40.232;29.132;2023-04-24T02:46:06;37.73;;;28.63;;
8944;SDS011;4507;40.232;29.132;2023-04-24T02:48:35;40.47;;;28.30;;
8944;SDS011;4507;40.232;29.132;2023-04-24T02:51:05;42.67;;;29.03;;
8944;SDS011;4507;40.232;29.132;2023-04-24T02:53:35;39.93;;;27.60;;
8944;SDS011;4507;40.232;29.132;2023-04-24T02:56:04;37.53;;;27.20;;
8944;SDS011;4507;40.232;29.132;2023-04-24T02:58:35;37.63;;;29.17;;
8944;SDS011;4507;40.232;29.132;2023-04-24T03:01:04;45.57;;;30.80;;
8944;SDS011;4507;40.232;29.132;2023-04-24T03:03:33;38.77;;;28.23;;
8944;SDS011;4507;40.232;29.132;2023-04-24T03:06:02;38.40;;;29.50;;
8944;SDS011;4507;40.232;29.132;2023-04-24T03:08:32;43.83;;;30.13;;
8944;SDS011;4507;40.232;29.132;2023-04-24T03:11:01;44.57;;;30.00;;
8944;SDS011;4507;40.232;29.132;2023-04-24T03:13:30;46.63;;;32.00;;
8944;SDS011;4507;40.232;29.132;2023-04-24T03:16:00;44.97;;;30.77;;
8944;SDS011;4507;40.232;29.132;2023-04-24T03:18:30;38.93;;;28.77;;
8944;SDS011;4507;40.232;29.132;2023-04-24T03:20:59;34.23;;;28.37;;
8944;SDS011;4507;40.232;29.132;2023-04-24T03:23:31;39.20;;;29.00;;
8944;SDS011;4507;40.232;29.132;2023-04-24T03:26:00;66.40;;;31.10;;
8944;SDS011;4507;40.232;29.132;2023-04-24T03:28:30;40.00;;;29.97;;
8944;SDS011;4507;40.232;29.132;2023-04-24T03:31:03;36.93;;;29.67;;
8944;SDS011;4507;40.232;29.132;2023-04-24T03:33:36;42.57;;;29.40;;
8944;SDS011;4507;40.232;29.132;2023-04-24T03:36:09;36.43;;;28.93;;
8944;SDS011;4507;40.232;29.132;2023-04-24T03:38:40;71.07;;;32.50;;
8944;SDS011;4507;40.232;29.132;2023-04-24T03:41:35;96.73;;;35.10;;
8944;SDS011;4507;40.232;29.132;2023-04-24T03:44:10;64.63;;;32.30;;
8944;SDS011;4507;40.232;29.132;2023-04-24T03:46:41;56.80;;;31.60;;
8944;SDS011;4507;40.232;29.132;2023-04-24T03:49:11;48.13;;;31.43;;
8944;SDS011;4507;40.232;29.132;2023-04-24T03:51:42;66.00;;;33.47;;
8944;SDS011;4507;40.232;29.132;2023-04-24T03:54:21;48.03;;;30.70;;
8944;SDS011;4507;40.232;29.132;2023-04-24T03:56:52;37.03;;;28.60;;
8944;SDS011;4507;40.232;29.132;2023-04-24T03:59:22;49.30;;;28.83;;
8944;SDS011;4507;40.232;29.132;2023-04-24T04:02:06;38.97;;;27.37;;
8944;SDS011;4507;40.232;29.132;2023-04-24T04:04:36;36.03;;;26.67;;
8944;SDS011;4507;40.232;29.132;2023-04-24T04:07:06;34.57;;;25.77;;
8944;SDS011;4507;40.232;29.132;2023-04-24T04:09:35;34.07;;;25.77;;
8944;SDS011;4507;40.232;29.132;2023-04-24T04:12:04;28.93;;;25.50;;
8944;SDS011;4507;40.232;29.132;2023-04-24T04:14:33;29.33;;;24.37;;
8944;SDS011;4507;40.232;29.132;2023-04-24T04:17:02;27.87;;;24.93;;
8944;SDS011;4507;40.232;29.132;2023-04-24T04:19:33;27.57;;;24.80;;
8944;SDS011;4507;40.232;29.132;2023-04-24T04:22:03;29.00;;;24.77;;
8944;SDS011;4507;40.232;29.132;2023-04-24T04:24:40;27.97;;;24.70;;
8944;SDS011;4507;40.232;29.132;2023-04-24T04:27:10;28.03;;;25.03;;
8944;SDS011;4507;40.232;29.132;2023-04-24T04:29:56;30.07;;;25.23;;
8944;SDS011;4507;40.232;29.132;2023-04-24T04:32:27;31.93;;;26.40;;
8944;SDS011;4507;40.232;29.132;2023-04-24T04:34:57;40.80;;;27.77;;
8944;SDS011;4507;40.232;29.132;2023-04-24T04:37:32;41.03;;;26.03;;
8944;SDS011;4507;40.232;29.132;2023-04-24T04:40:30;37.70;;;23.93;;
8944;SDS011;4507;40.232;29.132;2023-04-24T04:43:03;34.47;;;23.20;;
8944;SDS011;4507;40.232;29.132;2023-04-24T04:45:41;39.13;;;23.67;;
8944;SDS011;4507;40.232;29.132;2023-04-24T04:48:38;31.13;;;22.37;;
8944;SDS011;4507;40.232;29.132;2023-04-24T04:51:09;74.27;;;51.60;;
8944;SDS011;4507;40.232;29.132;2023-04-24T04:53:39;45.17;;;31.67;;
8944;SDS011;4507;40.232;29.132;2023-04-24T04:56:08;37.67;;;30.27;;
8944;SDS011;4507;40.232;29.132;2023-04-24T04:58:41;30.30;;;25.47;;
8944;SDS011;4507;40.232;29.132;2023-04-24T05:01:14;43.13;;;26.53;;
8944;SDS011;4507;40.232;29.132;2023-04-24T05:03:45;60.00;;;37.60;;
8944;SDS011;4507;40.232;29.132;2023-04-24T05:06:18;79.43;;;58.17;;
8944;SDS011;4507;40.232;29.132;2023-04-24T05:08:50;69.40;;;50.30;;
8944;SDS011;4507;40.232;29.132;2023-04-24T05:11:31;39.30;;;25.60;;
8944;SDS011;4507;40.232;29.132;2023-04-24T05:14:01;43.10;;;27.53;;
8944;SDS011;4507;40.232;29.132;2023-04-24T05:16:34;43.30;;;26.50;;
8944;SDS011;4507;40.232;29.132;2023-04-24T05:19:05;49.50;;;26.03;;
8944;SDS011;4507;40.232;29.132;2023-04-24T05:21:39;39.70;;;25.43;;
8944;SDS011;4507;40.232;29.132;2023-04-24T05:24:27;35.40;;;26.80;;
8944;SDS011;4507;40.232;29.132;2023-04-24T05:27:07;36.37;;;29.77;;
8944;SDS011;4507;40.232;29.132;2023-04-24T05:29:40;55.87;;;29.90;;
8944;SDS011;4507;40.232;29.132;2023-04-24T05:32:10;63.03;;;33.07;;
8944;SDS011;4507;40.232;29.132;2023-04-24T05:34:39;47.53;;;27.40;;
8944;SDS011;4507;40.232;29.132;2023-04-24T05:37:09;36.93;;;30.13;;
8944;SDS011;4507;40.232;29.132;2023-04-24T05:39:40;36.93;;;30.67;;
8944;SDS011;4507;40.232;29.132;2023-04-24T05:42:10;35.83;;;26.77;;
8944;SDS011;4507;40.232;29.132;2023-04-24T05:44:39;45.90;;;29.10;;
8944;SDS011;4507;40.232;29.132;2023-04-24T05:47:08;33.37;;;27.93;;
8944;SDS011;4507;40.232;29.132;2023-04-24T05:49:37;45.07;;;27.10;;
8944;SDS011;4507;40.232;29.132;2023-04-24T05:52:07;43.80;;;26.30;;
8944;SDS011;4507;40.232;29.132;2023-04-24T05:54:39;37.07;;;28.23;;
8944;SDS011;4507;40.232;29.132;2023-04-24T05:57:11;36.17;;;32.17;;
8944;SDS011;4507;40.232;29.132;2023-04-24T05:59:53;62.97;;;46.23;;
8944;SDS011;4507;40.232;29.132;2023-04-24T06:02:22;43.77;;;31.40;;
8944;SDS011;4507;40.232;29.132;2023-04-24T06:04:53;39.80;;;28.93;;
8944;SDS011;4507;40.232;29.132;2023-04-24T06:07:25;41.73;;;29.00;;
8944;SDS011;4507;40.232;29.132;2023-04-24T06:09:54;53.23;;;31.27;;
8944;SDS011;4507;40.232;29.132;2023-04-24T06:12:24;31.70;;;27.00;;
8944;SDS011;4507;40.232;29.132;2023-04-24T06:14:59;36.17;;;27.97;;
8944;SDS011;4507;40.232;29.132;2023-04-24T06:17:47;35.80;;;26.80;;
8944;SDS011;4507;40.232;29.132;2023-04-24T06:20:17;37.97;;;28.13;;
8944;SDS011;4507;40.232;29.132;2023-04-24T06:22:48;43.93;;;28.27;;
8944;SDS011;4507;40.232;29.132;2023-04-24T06:25:17;41.10;;;28.50;;
8944;SDS011;4507;40.232;29.132;2023-04-24T06:27:46;62.00;;;30.93;;
8944;SDS011;4507;40.232;29.132;2023-04-24T06:30:15;46.97;;;29.90;;
8944;SDS011;4507;40.232;29.132;2023-04-24T06:32:46;42.03;;;31.53;;
8944;SDS011;4507;40.232;29.132;2023-04-24T06:35:47;42.10;;;30.07;;
8944;SDS011;4507;40.232;29.132;2023-04-24T06:38:25;45.37;;;31.10;;
8944;SDS011;4507;40.232;29.132;2023-04-24T06:40:56;50.50;;;30.33;;
8944;SDS011;4507;40.232;29.132;2023-04-24T06:43:25;38.50;;;28.97;;
8944;SDS011;4507;40.232;29.132;2023-04-24T06:45:54;34.73;;;27.87;;
8944;SDS011;4507;40.232;29.132;2023-04-24T06:48:42;32.20;;;28.80;;
8944;SDS011;4507;40.232;29.132;2023-04-24T06:51:11;42.60;;;28.80;;
8944;SDS011;4507;40.232;29.132;2023-04-24T06:54:00;30.43;;;26.77;;
8944;SDS011;4507;40.232;29.132;2023-04-24T06:56:30;29.77;;;23.73;;
8944;SDS011;4507;40.232;29.132;2023-04-24T06:59:01;30.47;;;25.27;;
8944;SDS011;4507;40.232;29.132;2023-04-24T07:01:30;25.63;;;21.57;;
8944;SDS011;4507;40.232;29.132;2023-04-24T07:03:59;25.27;;;22.40;;
8944;SDS011;4507;40.232;29.132;2023-04-24T07:06:32;25.93;;;23.43;;
8944;SDS011;4507;40.232;29.132;2023-04-24T07:09:04;35.73;;;22.80;;
8944;SDS011;4507;40.232;29.132;2023-04-24T07:11:33;56.70;;;24.07;;
8944;SDS011;4507;40.232;29.132;2023-04-24T07:14:03;26.57;;;20.83;;
8944;SDS011;4507;40.232;29.132;2023-04-24T07:16:32;34.80;;;24.10;;
8944;SDS011;4507;40.232;29.132;2023-04-24T07:19:01;35.47;;;22.97;;
8944;SDS011;4507;40.232;29.132;2023-04-24T07:21:30;26.47;;;23.10;;
8944;SDS011;4507;40.232;29.132;2023-04-24T07:24:00;29.53;;;22.90;;
8944;SDS011;4507;40.232;29.132;2023-04-24T07:26:30;26.90;;;22.80;;
8944;SDS011;4507;40.232;29.132;2023-04-24T07:28:59;30.70;;;22.27;;
8944;SDS011;4507;40.232;29.132;2023-04-24T07:31:28;34.20;;;24.17;;
8944;SDS011;4507;40.232;29.132;2023-04-24T07:33:58;27.73;;;22.10;;
8944;SDS011;4507;40.232;29.132;2023-04-24T07:36:27;26.33;;;21.03;;
8944;SDS011;4507;40.232;29.132;2023-04-24T07:38:56;31.67;;;22.33;;
8944;SDS011;4507;40.232;29.132;2023-04-24T07:41:25;23.63;;;21.20;;
8944;SDS011;4507;40.232;29.132;2023-04-24T07:43:57;31.70;;;21.97;;
8944;SDS011;4507;40.232;29.132;2023-04-24T07:46:26;27.30;;;21.47;;
8944;SDS011;4507;40.232;29.132;2023-04-24T07:48:56;23.30;;;20.90;;
8944;SDS011;4507;40.232;29.132;2023-04-24T07:51:39;27.47;;;21.40;;
8944;SDS011;4507;40.232;29.132;2023-04-24T07:54:08;35.53;;;22.10;;
8944;SDS011;4507;40.232;29.132;2023-04-24T07:56:37;29.63;;;22.23;;
8944;SDS011;4507;40.232;29.132;2023-04-24T07:59:09;35.40;;;22.40;;
8944;SDS011;4507;40.232;29.132;2023-04-24T08:01:39;35.77;;;23.30;;
8944;SDS011;4507;40.232;29.132;2023-04-24T08:04:08;44.03;;;23.03;;
8944;SDS011;4507;40.232;29.132;2023-04-24T08:06:37;38.23;;;21.40;;
8944;SDS011;4507;40.232;29.132;2023-04-24T08:09:06;28.13;;;21.67;;
8944;SDS011;4507;40.232;29.132;2023-04-24T08:11:36;24.90;;;21.60;;
8944;SDS011;4507;40.232;29.132;2023-04-24T08:14:05;34.33;;;21.30;;
8944;SDS011;4507;40.232;29.132;2023-04-24T08:16:35;26.30;;;21.27;;
8944;SDS011;4507;40.232;29.132;2023-04-24T08:19:05;51.00;;;23.47;;
8944;SDS011;4507;40.232;29.132;2023-04-24T08:21:34;41.97;;;24.83;;
8944;SDS011;4507;40.232;29.132;2023-04-24T08:24:04;31.37;;;23.00;;
8944;SDS011;4507;40.232;29.132;2023-04-24T08:26:35;34.03;;;22.60;;
8944;SDS011;4507;40.232;29.132;2023-04-24T08:29:04;34.77;;;22.70;;
8944;SDS011;4507;40.232;29.132;2023-04-24T08:31:35;32.03;;;22.90;;
8944;SDS011;4507;40.232;29.132;2023-04-24T08:34:04;27.30;;;21.87;;
8944;SDS011;4507;40.232;29.132;2023-04-24T08:36:33;29.83;;;21.17;;
8944;SDS011;4507;40.232;29.132;2023-04-24T08:39:12;48.37;;;23.03;;
8944;SDS011;4507;40.232;29.132;2023-04-24T08:41:42;28.27;;;20.47;;
8944;SDS011;4507;40.232;29.132;2023-04-24T08:44:12;26.17;;;21.37;;
8944;SDS011;4507;40.232;29.132;2023-04-24T08:46:44;26.43;;;22.10;;
8944;SDS011;4507;40.232;29.132;2023-04-24T08:49:16;26.67;;;20.30;;
8944;SDS011;4507;40.232;29.132;2023-04-24T08:51:45;32.43;;;19.97;;
8944;SDS011;4507;40.232;29.132;2023-04-24T08:54:14;32.80;;;21.00;;
8944;SDS011;4507;40.232;29.132;2023-04-24T08:57:03;34.43;;;20.47;;
8944;SDS011;4507;40.232;29.132;2023-04-24T08:59:32;26.13;;;19.63;;
8944;SDS011;4507;40.232;29.132;2023-04-24T09:02:04;27.87;;;19.53;;
8944;SDS011;4507;40.232;29.132;2023-04-24T09:04:35;21.67;;;19.00;;
8944;SDS011;4507;40.232;29.132;2023-04-24T09:07:06;50.67;;;20.77;;
8944;SDS011;4507;40.232;29.132;2023-04-24T09:09:36;30.93;;;18.90;;
8944;SDS011;4507;40.232;29.132;2023-04-24T09:12:25;25.20;;;19.43;;
8944;SDS011;4507;40.232;29.132;2023-04-24T09:14:55;28.53;;;20.70;;
8944;SDS011;4507;40.232;29.132;2023-04-24T09:17:26;24.80;;;20.80;;
8944;SDS011;4507;40.232;29.132;2023-04-24T09:19:56;29.47;;;20.60;;
8944;SDS011;4507;40.232;29.132;2023-04-24T09:22:25;34.10;;;22.83;;
8944;SDS011;4507;40.232;29.132;2023-04-24T09:25:02;26.77;;;20.60;;
8944;SDS011;4507;40.232;29.132;2023-04-24T09:27:33;24.60;;;20.00;;
8944;SDS011;4507;40.232;29.132;2023-04-24T09:30:03;23.27;;;19.40;;
8944;SDS011;4507;40.232;29.132;2023-04-24T09:32:35;26.23;;;19.47;;
8944;SDS011;4507;40.232;29.132;2023-04-24T09:35:23;34.53;;;19.70;;
8944;SDS011;4507;40.232;29.132;2023-04-24T09:37:53;38.13;;;34.13;;
8944;SDS011;4507;40.232;29.132;2023-04-24T09:40:26;25.30;;;19.97;;
8944;SDS011;4507;40.232;29.132;2023-04-24T09:42:55;26.83;;;19.03;;
8944;SDS011;4507;40.232;29.132;2023-04-24T09:45:28;34.40;;;19.87;;
8944;SDS011;4507;40.232;29.132;2023-04-24T09:48:05;21.87;;;18.47;;
8944;SDS011;4507;40.232;29.132;2023-04-24T09:50:40;23.60;;;17.70;;
8944;SDS011;4507;40.232;29.132;2023-04-24T09:53:15;24.50;;;17.87;;
8944;SDS011;4507;40.232;29.132;2023-04-24T09:55:52;21.23;;;17.67;;
8944;SDS011;4507;40.232;29.132;2023-04-24T09:58:24;24.17;;;17.60;;
8944;SDS011;4507;40.232;29.132;2023-04-24T10:00:55;20.13;;;17.83;;
8944;SDS011;4507;40.232;29.132;2023-04-24T10:03:27;19.10;;;16.73;;
8944;SDS011;4507;40.232;29.132;2023-04-24T10:05:58;20.07;;;16.10;;
8944;SDS011;4507;40.232;29.132;2023-04-24T10:08:32;21.03;;;16.47;;
8944;SDS011;4507;40.232;29.132;2023-04-24T10:11:03;28.07;;;17.20;;
8944;SDS011;4507;40.232;29.132;2023-04-24T10:13:34;24.73;;;17.43;;
8944;SDS011;4507;40.232;29.132;2023-04-24T10:16:10;22.43;;;14.10;;
8944;SDS011;4507;40.232;29.132;2023-04-24T10:18:41;16.03;;;13.23;;
8944;SDS011;4507;40.232;29.132;2023-04-24T10:21:11;15.13;;;12.00;;
8944;SDS011;4507;40.232;29.132;2023-04-24T10:23:40;14.77;;;11.47;;
8944;SDS011;4507;40.232;29.132;2023-04-24T10:26:12;16.80;;;12.70;;
8944;SDS011;4507;40.232;29.132;2023-04-24T10:28:44;17.23;;;10.43;;
8944;SDS011;4507;40.232;29.132;2023-04-24T10:31:32;17.50;;;10.30;;
8944;SDS011;4507;40.232;29.132;2023-04-24T10:34:03;16.10;;;11.60;;
8944;SDS011;4507;40.232;29.132;2023-04-24T10:36:34;37.03;;;13.03;;
8944;SDS011;4507;40.232;29.132;2023-04-24T10:39:07;14.27;;;10.23;;
8944;SDS011;4507;40.232;29.132;2023-04-24T10:41:39;16.70;;;11.27;;
8944;SDS011;4507;40.232;29.132;2023-04-24T10:44:09;13.80;;;9.03;;
8944;SDS011;4507;40.232;29.132;2023-04-24T10:46:39;10.53;;;7.63;;
8944;SDS011;4507;40.232;29.132;2023-04-24T10:49:13;13.80;;;7.57;;
8944;SDS011;4507;40.232;29.132;2023-04-24T10:51:46;12.93;;;8.10;;
8944;SDS011;4507;40.232;29.132;2023-04-24T10:54:36;16.37;;;8.60;;
8944;SDS011;4507;40.232;29.132;2023-04-24T10:57:26;13.80;;;5.70;;
8944;SDS011;4507;40.232;29.132;2023-04-24T11:02:54;11.27;;;7.80;;
8944;SDS011;4507;40.232;29.132;2023-04-24T11:08:37;13.23;;;7.47;;
8944;SDS011;4507;40.232;29.132;2023-04-24T11:11:08;10.73;;;6.60;;
8944;SDS011;4507;40.232;29.132;2023-04-24T11:16:34;24.23;;;11.43;;
8944;SDS011;4507;40.232;29.132;2023-04-24T11:19:21;17.93;;;11.17;;
8944;SDS011;4507;40.232;29.132;2023-04-24T11:21:57;13.80;;;10.90;;
8944;SDS011;4507;40.232;29.132;2023-04-24T11:24:29;14.13;;;9.40;;
8944;SDS011;4507;40.232;29.132;2023-04-24T11:27:05;17.97;;;8.10;;
8944;SDS011;4507;40.232;29.132;2023-04-24T11:29:43;10.17;;;7.00;;
8944;SDS011;4507;40.232;29.132;2023-04-24T11:32:18;23.77;;;7.93;;
8944;SDS011;4507;40.232;29.132;2023-04-24T11:34:55;13.83;;;7.53;;
8944;SDS011;4507;40.232;29.132;2023-04-24T11:37:28;13.80;;;8.17;;
8944;SDS011;4507;40.232;29.132;2023-04-24T11:40:01;14.20;;;7.90;;
8944;SDS011;4507;40.232;29.132;2023-04-24T11:42:35;16.60;;;8.80;;
8944;SDS011;4507;40.232;29.132;2023-04-24T11:45:08;12.63;;;9.53;;
8944;SDS011;4507;40.232;29.132;2023-04-24T11:47:39;15.43;;;10.57;;
8944;SDS011;4507;40.232;29.132;2023-04-24T11:50:10;14.60;;;10.13;;
8944;SDS011;4507;40.232;29.132;2023-04-24T11:52:42;12.93;;;10.47;;
8944;SDS011;4507;40.232;29.132;2023-04-24T11:57:58;13.50;;;9.30;;
8944;SDS011;4507;40.232;29.132;2023-04-24T12:00:28;14.43;;;9.40;;
8944;SDS011;4507;40.232;29.132;2023-04-24T12:03:04;15.50;;;9.70;;
8944;SDS011;4507;40.232;29.132;2023-04-24T12:05:35;17.33;;;10.00;;
8944;SDS011;4507;40.232;29.132;2023-04-24T12:08:09;14.10;;;9.23;;
8944;SDS011;4507;40.232;29.132;2023-04-24T12:11:05;19.50;;;10.23;;
8944;SDS011;4507;40.232;29.132;2023-04-24T12:13:41;11.43;;;8.63;;
8944;SDS011;4507;40.232;29.132;2023-04-24T12:16:12;15.67;;;8.30;;
8944;SDS011;4507;40.232;29.132;2023-04-24T12:18:50;14.80;;;5.77;;
8944;SDS011;4507;40.232;29.132;2023-04-24T12:21:20;12.23;;;5.70;;
8944;SDS011;4507;40.232;29.132;2023-04-24T12:23:55;17.03;;;6.90;;
8944;SDS011;4507;40.232;29.132;2023-04-24T12:26:25;8.63;;;5.10;;
8944;SDS011;4507;40.232;29.132;2023-04-24T12:28:56;11.10;;;5.00;;
8944;SDS011;4507;40.232;29.132;2023-04-24T12:31:31;12.03;;;4.50;;
8944;SDS011;4507;40.232;29.132;2023-04-24T12:34:00;11.10;;;5.07;;
8944;SDS011;4507;40.232;29.132;2023-04-24T12:36:30;18.43;;;6.40;;
8944;SDS011;4507;40.232;29.132;2023-04-24T12:39:00;14.60;;;6.13;;
8944;SDS011;4507;40.232;29.132;2023-04-24T12:41:30;11.90;;;5.37;;
8944;SDS011;4507;40.232;29.132;2023-04-24T12:43:59;11.17;;;5.47;;
8944;SDS011;4507;40.232;29.132;2023-04-24T12:46:28;8.03;;;5.37;;
8944;SDS011;4507;40.232;29.132;2023-04-24T12:48:57;10.00;;;5.50;;
8944;SDS011;4507;40.232;29.132;2023-04-24T12:51:26;11.07;;;5.30;;
8944;SDS011;4507;40.232;29.132;2023-04-24T12:53:55;28.93;;;6.10;;
8944;SDS011;4507;40.232;29.132;2023-04-24T12:56:26;18.90;;;6.77;;
8944;SDS011;4507;40.232;29.132;2023-04-24T12:58:56;16.23;;;6.13;;
8944;SDS011;4507;40.232;29.132;2023-04-24T13:01:25;8.03;;;4.93;;
8944;SDS011;4507;40.232;29.132;2023-04-24T13:03:55;16.10;;;5.07;;
8944;SDS011;4507;40.232;29.132;2023-04-24T13:06:24;16.13;;;4.43;;
8944;SDS011;4507;40.232;29.132;2023-04-24T13:08:54;5.27;;;4.20;;
8944;SDS011;4507;40.232;29.132;2023-04-24T13:11:28;7.20;;;4.60;;
8944;SDS011;4507;40.232;29.132;2023-04-24T13:14:03;6.17;;;4.37;;
8944;SDS011;4507;40.232;29.132;2023-04-24T13:16:32;12.47;;;4.73;;
8944;SDS011;4507;40.232;29.132;2023-04-24T13:19:02;13.87;;;4.70;;
8944;SDS011;4507;40.232;29.132;2023-04-24T13:21:31;19.00;;;5.40;;
8944;SDS011;4507;40.232;29.132;2023-04-24T13:24:00;16.23;;;6.20;;
8944;SDS011;4507;40.232;29.132;2023-04-24T13:26:41;10.40;;;5.27;;
8944;SDS011;4507;40.232;29.132;2023-04-24T13:29:11;13.07;;;4.97;;
8944;SDS011;4507;40.232;29.132;2023-04-24T13:31:40;24.43;;;6.83;;
8944;SDS011;4507;40.232;29.132;2023-04-24T13:34:09;11.00;;;5.30;;
8944;SDS011;4507;40.232;29.132;2023-04-24T13:36:39;7.00;;;4.40;;
8944;SDS011;4507;40.232;29.132;2023-04-24T13:39:08;7.70;;;4.20;;
8944;SDS011;4507;40.232;29.132;2023-04-24T13:41:43;8.40;;;5.10;;
8944;SDS011;4507;40.232;29.132;2023-04-24T13:44:15;6.83;;;4.90;;
8944;SDS011;4507;40.232;29.132;2023-04-24T13:46:45;9.27;;;4.23;;
8944;SDS011;4507;40.232;29.132;2023-04-24T13:49:16;13.03;;;4.53;;
8944;SDS011;4507;40.232;29.132;2023-04-24T13:51:45;9.47;;;4.00;;
8944;SDS011;4507;40.232;29.132;2023-04-24T13:54:14;33.30;;;6.27;;
8944;SDS011;4507;40.232;29.132;2023-04-24T13:56:44;9.57;;;5.17;;
8944;SDS011;4507;40.232;29.132;2023-04-24T13:59:14;12.03;;;5.97;;
8944;SDS011;4507;40.232;29.132;2023-04-24T14:01:44;24.30;;;6.57;;
8944;SDS011;4507;40.232;29.132;2023-04-24T14:04:15;16.33;;;5.60;;
8944;SDS011;4507;40.232;29.132;2023-04-24T14:06:45;10.43;;;5.03;;
8944;SDS011;4507;40.232;29.132;2023-04-24T14:09:15;7.07;;;4.90;;
8944;SDS011;4507;40.232;29.132;2023-04-24T14:11:45;16.63;;;5.40;;
8944;SDS011;4507;40.232;29.132;2023-04-24T14:14:15;15.87;;;5.13;;
8944;SDS011;4507;40.232;29.132;2023-04-24T14:16:44;17.23;;;6.07;;
8944;SDS011;4507;40.232;29.132;2023-04-24T14:19:13;13.07;;;5.83;;
8944;SDS011;4507;40.232;29.132;2023-04-24T14:21:42;11.23;;;4.93;;
8944;SDS011;4507;40.232;29.132;2023-04-24T14:24:11;14.60;;;5.10;;
8944;SDS011;4507;40.232;29.132;2023-04-24T14:26:42;14.40;;;5.13;;
8944;SDS011;4507;40.232;29.132;2023-04-24T14:29:12;12.17;;;5.27;;
8944;SDS011;4507;40.232;29.132;2023-04-24T14:31:42;16.80;;;5.40;;
8944;SDS011;4507;40.232;29.132;2023-04-24T14:34:12;21.30;;;6.63;;
8944;SDS011;4507;40.232;29.132;2023-04-24T14:36:43;14.03;;;5.30;;
8944;SDS011;4507;40.232;29.132;2023-04-24T14:39:13;15.40;;;5.60;;
8944;SDS011;4507;40.232;29.132;2023-04-24T14:41:44;15.50;;;5.20;;
8944;SDS011;4507;40.232;29.132;2023-04-24T14:44:14;19.27;;;5.70;;
8944;SDS011;4507;40.232;29.132;2023-04-24T14:46:44;18.63;;;5.03;;
8944;SDS011;4507;40.232;29.132;2023-04-24T14:49:13;11.00;;;6.43;;
8944;SDS011;4507;40.232;29.132;2023-04-24T14:51:42;20.47;;;7.00;;
8944;SDS011;4507;40.232;29.132;2023-04-24T14:54:11;11.33;;;5.60;;
8944;SDS011;4507;40.232;29.132;2023-04-24T14:56:42;15.27;;;6.17;;
8944;SDS011;4507;40.232;29.132;2023-04-24T14:59:11;16.17;;;6.37;;
8944;SDS011;4507;40.232;29.132;2023-04-24T15:01:42;23.23;;;7.83;;
8944;SDS011;4507;40.232;29.132;2023-04-24T15:04:11;15.50;;;6.63;;
8944;SDS011;4507;40.232;29.132;2023-04-24T15:06:41;9.90;;;5.93;;
8944;SDS011;4507;40.232;29.132;2023-04-24T15:09:10;10.67;;;6.27;;
8944;SDS011;4507;40.232;29.132;2023-04-24T15:11:40;19.60;;;6.60;;
8944;SDS011;4507;40.232;29.132;2023-04-24T15:14:09;7.53;;;5.10;;
8944;SDS011;4507;40.232;29.132;2023-04-24T15:16:38;11.00;;;5.60;;